sensor_id;sensor_type;location;lat;lon;timestamp;P1;durP1;ratioP1;P2;durP2;ratioP2
27847;SDS011;15212;48.830;8.730;2023-06-14T00:01:01;7.65;;;3.65;;
27847;SDS011;15212;48.830;8.730;2023-06-14T00:03:31;5.60;;;3.67;;
27847;SDS011;15212;48.830;8.730;2023-06-14T00:06:00;9.30;;;3.40;;
27847;SDS011;15212;48.830;8.730;2023-06-14T00:08:28;6.50;;;3.42;;
27847;SDS011;15212;48.830;8.730;2023-06-14T00:10:57;7.28;;;3.42;;
27847;SDS011;15212;48.830;8.730;2023-06-14T00:13:25;6.00;;;3.25;;
27847;SDS011;15212;48.830;8.730;2023-06-14T00:15:54;10.13;;;3.83;;
27847;SDS011;15212;48.830;8.730;2023-06-14T00:18:22;5.70;;;3.58;;
27847;SDS011;15212;48.830;8.730;2023-06-14T00:20:52;7.15;;;3.45;;
27847;SDS011;15212;48.830;8.730;2023-06-14T00:23:21;7.72;;;4.05;;
27847;SDS011;15212;48.830;8.730;2023-06-14T00:25:49;5.85;;;4.15;;
27847;SDS011;15212;48.830;8.730;2023-06-14T00:28:17;7.03;;;4.17;;
27847;SDS011;15212;48.830;8.730;2023-06-14T00:30:46;7.60;;;4.10;;
27847;SDS011;15212;48.830;8.730;2023-06-14T00:33:14;8.98;;;4.20;;
27847;SDS011;15212;48.830;8.730;2023-06-14T00:35:43;5.75;;;4.08;;
27847;SDS011;15212;48.830;8.730;2023-06-14T00:38:12;7.90;;;3.80;;
27847;SDS011;15212;48.830;8.730;2023-06-14T00:40:41;9.50;;;4.20;;
27847;SDS011;15212;48.830;8.730;2023-06-14T00:43:09;6.37;;;4.10;;
27847;SDS011;15212;48.830;8.730;2023-06-14T00:45:38;7.42;;;3.92;;
27847;SDS011;15212;48.830;8.730;2023-06-14T00:48:06;7.78;;;4.15;;
27847;SDS011;15212;48.830;8.730;2023-06-14T00:50:35;9.98;;;4.25;;
27847;SDS011;15212;48.830;8.730;2023-06-14T00:53:04;8.95;;;4.20;;
27847;SDS011;15212;48.830;8.730;2023-06-14T00:55:32;5.40;;;3.92;;
27847;SDS011;15212;48.830;8.730;2023-06-14T00:58:01;7.30;;;4.03;;
27847;SDS011;15212;48.830;8.730;2023-06-14T01:00:29;9.33;;;4.20;;
27847;SDS011;15212;48.830;8.730;2023-06-14T01:02:57;8.25;;;3.92;;
27847;SDS011;15212;48.830;8.730;2023-06-14T01:05:28;6.67;;;3.92;;
27847;SDS011;15212;48.830;8.730;2023-06-14T01:08:14;9.80;;;4.62;;
27847;SDS011;15212;48.830;8.730;2023-06-14T01:11:25;8.25;;;4.00;;
27847;SDS011;15212;48.830;8.730;2023-06-14T01:13:56;7.60;;;3.87;;
27847;SDS011;15212;48.830;8.730;2023-06-14T01:16:26;7.35;;;3.75;;
27847;SDS011;15212;48.830;8.730;2023-06-14T01:18:57;8.30;;;4.40;;
27847;SDS011;15212;48.830;8.730;2023-06-14T01:21:28;8.90;;;4.40;;
27847;SDS011;15212;48.830;8.730;2023-06-14T01:23:56;14.10;;;5.05;;
27847;SDS011;15212;48.830;8.730;2023-06-14T01:26:25;11.30;;;5.20;;
27847;SDS011;15212;48.830;8.730;2023-06-14T01:28:54;7.87;;;4.65;;
27847;SDS011;15212;48.830;8.730;2023-06-14T01:31:24;7.12;;;4.67;;
27847;SDS011;15212;48.830;8.730;2023-06-14T01:33:53;7.22;;;4.37;;
27847;SDS011;15212;48.830;8.730;2023-06-14T01:36:22;9.65;;;4.33;;
27847;SDS011;15212;48.830;8.730;2023-06-14T01:38:52;10.65;;;4.62;;
27847;SDS011;15212;48.830;8.730;2023-06-14T01:41:22;11.10;;;4.30;;
27847;SDS011;15212;48.830;8.730;2023-06-14T01:43:50;7.50;;;4.78;;
27847;SDS011;15212;48.830;8.730;2023-06-14T01:46:20;12.78;;;4.53;;
27847;SDS011;15212;48.830;8.730;2023-06-14T01:48:49;9.65;;;4.60;;
27847;SDS011;15212;48.830;8.730;2023-06-14T01:51:18;10.08;;;4.40;;
27847;SDS011;15212;48.830;8.730;2023-06-14T01:53:46;9.43;;;4.25;;
27847;SDS011;15212;48.830;8.730;2023-06-14T01:56:14;8.88;;;4.55;;
27847;SDS011;15212;48.830;8.730;2023-06-14T01:58:43;8.35;;;4.30;;
27847;SDS011;15212;48.830;8.730;2023-06-14T02:01:11;5.72;;;3.95;;
27847;SDS011;15212;48.830;8.730;2023-06-14T02:03:41;8.83;;;4.55;;
27847;SDS011;15212;48.830;8.730;2023-06-14T02:06:10;7.85;;;4.10;;
27847;SDS011;15212;48.830;8.730;2023-06-14T02:08:39;8.28;;;4.35;;
27847;SDS011;15212;48.830;8.730;2023-06-14T02:11:08;7.65;;;4.00;;
27847;SDS011;15212;48.830;8.730;2023-06-14T02:13:36;8.18;;;4.28;;
27847;SDS011;15212;48.830;8.730;2023-06-14T02:16:05;9.15;;;4.62;;
27847;SDS011;15212;48.830;8.730;2023-06-14T02:18:33;7.40;;;4.65;;
27847;SDS011;15212;48.830;8.730;2023-06-14T02:21:02;7.67;;;4.55;;
27847;SDS011;15212;48.830;8.730;2023-06-14T02:23:31;16.07;;;4.62;;
27847;SDS011;15212;48.830;8.730;2023-06-14T02:25:59;10.05;;;4.62;;
27847;SDS011;15212;48.830;8.730;2023-06-14T02:28:28;9.60;;;4.50;;
27847;SDS011;15212;48.830;8.730;2023-06-14T02:30:57;8.65;;;4.40;;
27847;SDS011;15212;48.830;8.730;2023-06-14T02:33:26;8.43;;;4.78;;
27847;SDS011;15212;48.830;8.730;2023-06-14T02:35:54;8.18;;;5.30;;
27847;SDS011;15212;48.830;8.730;2023-06-14T02:38:23;16.42;;;4.75;;
27847;SDS011;15212;48.830;8.730;2023-06-14T02:40:52;10.40;;;4.53;;
27847;SDS011;15212;48.830;8.730;2023-06-14T02:43:20;8.30;;;5.10;;
27847;SDS011;15212;48.830;8.730;2023-06-14T02:45:49;10.48;;;4.45;;
27847;SDS011;15212;48.830;8.730;2023-06-14T02:48:18;9.00;;;4.20;;
27847;SDS011;15212;48.830;8.730;2023-06-14T02:50:46;9.73;;;4.37;;
27847;SDS011;15212;48.830;8.730;2023-06-14T02:53:14;7.25;;;4.60;;
27847;SDS011;15212;48.830;8.730;2023-06-14T02:55:43;7.33;;;4.28;;
27847;SDS011;15212;48.830;8.730;2023-06-14T02:58:12;8.05;;;4.50;;
27847;SDS011;15212;48.830;8.730;2023-06-14T03:00:42;9.68;;;4.70;;
27847;SDS011;15212;48.830;8.730;2023-06-14T03:03:10;7.80;;;4.55;;
27847;SDS011;15212;48.830;8.730;2023-06-14T03:05:44;9.28;;;4.40;;
27847;SDS011;15212;48.830;8.730;2023-06-14T03:08:15;9.93;;;5.10;;
27847;SDS011;15212;48.830;8.730;2023-06-14T03:10:48;10.55;;;4.67;;
27847;SDS011;15212;48.830;8.730;2023-06-14T03:13:16;9.25;;;4.87;;
27847;SDS011;15212;48.830;8.730;2023-06-14T03:15:48;10.85;;;4.60;;
27847;SDS011;15212;48.830;8.730;2023-06-14T03:18:17;10.25;;;4.70;;
27847;SDS011;15212;48.830;8.730;2023-06-14T03:20:47;8.20;;;4.85;;
27847;SDS011;15212;48.830;8.730;2023-06-14T03:23:17;7.47;;;5.00;;
27847;SDS011;15212;48.830;8.730;2023-06-14T03:25:45;7.67;;;4.53;;
27847;SDS011;15212;48.830;8.730;2023-06-14T03:28:14;6.62;;;4.17;;
27847;SDS011;15212;48.830;8.730;2023-06-14T03:30:42;7.03;;;4.62;;
27847;SDS011;15212;48.830;8.730;2023-06-14T03:33:11;9.38;;;4.62;;
27847;SDS011;15212;48.830;8.730;2023-06-14T03:35:39;7.30;;;4.47;;
27847;SDS011;15212;48.830;8.730;2023-06-14T03:38:08;9.63;;;4.80;;
27847;SDS011;15212;48.830;8.730;2023-06-14T03:40:36;8.25;;;4.40;;
27847;SDS011;15212;48.830;8.730;2023-06-14T03:43:04;7.92;;;4.50;;
27847;SDS011;15212;48.830;8.730;2023-06-14T03:45:33;8.88;;;4.53;;
27847;SDS011;15212;48.830;8.730;2023-06-14T03:48:01;8.75;;;4.80;;
27847;SDS011;15212;48.830;8.730;2023-06-14T03:50:32;8.63;;;4.53;;
27847;SDS011;15212;48.830;8.730;2023-06-14T03:53:02;11.60;;;4.37;;
27847;SDS011;15212;48.830;8.730;2023-06-14T03:55:31;9.28;;;4.65;;
27847;SDS011;15212;48.830;8.730;2023-06-14T03:57:59;6.83;;;4.40;;
27847;SDS011;15212;48.830;8.730;2023-06-14T04:00:28;7.05;;;4.28;;
27847;SDS011;15212;48.830;8.730;2023-06-14T04:02:57;10.23;;;4.80;;
27847;SDS011;15212;48.830;8.730;2023-06-14T04:05:26;8.70;;;4.35;;
27847;SDS011;15212;48.830;8.730;2023-06-14T04:07:55;9.23;;;4.87;;
27847;SDS011;15212;48.830;8.730;2023-06-14T04:10:25;7.92;;;4.80;;
27847;SDS011;15212;48.830;8.730;2023-06-14T04:12:53;11.85;;;4.78;;
27847;SDS011;15212;48.830;8.730;2023-06-14T04:15:22;11.70;;;5.00;;
27847;SDS011;15212;48.830;8.730;2023-06-14T04:17:50;6.47;;;4.50;;
27847;SDS011;15212;48.830;8.730;2023-06-14T04:20:20;8.40;;;4.58;;
27847;SDS011;15212;48.830;8.730;2023-06-14T04:22:51;11.53;;;4.92;;
27847;SDS011;15212;48.830;8.730;2023-06-14T04:25:19;9.60;;;5.42;;
27847;SDS011;15212;48.830;8.730;2023-06-14T04:27:49;10.75;;;5.42;;
27847;SDS011;15212;48.830;8.730;2023-06-14T04:30:18;13.22;;;5.22;;
27847;SDS011;15212;48.830;8.730;2023-06-14T04:32:47;11.50;;;5.20;;
27847;SDS011;15212;48.830;8.730;2023-06-14T04:35:15;8.33;;;4.90;;
27847;SDS011;15212;48.830;8.730;2023-06-14T04:37:44;7.85;;;5.00;;
27847;SDS011;15212;48.830;8.730;2023-06-14T04:40:12;10.43;;;5.00;;
27847;SDS011;15212;48.830;8.730;2023-06-14T04:42:40;8.20;;;4.97;;
27847;SDS011;15212;48.830;8.730;2023-06-14T04:45:10;7.92;;;4.67;;
27847;SDS011;15212;48.830;8.730;2023-06-14T04:47:41;9.95;;;4.40;;
27847;SDS011;15212;48.830;8.730;2023-06-14T04:50:10;7.90;;;4.75;;
27847;SDS011;15212;48.830;8.730;2023-06-14T04:52:38;14.10;;;4.70;;
27847;SDS011;15212;48.830;8.730;2023-06-14T04:55:07;9.35;;;4.53;;
27847;SDS011;15212;48.830;8.730;2023-06-14T04:57:36;7.47;;;4.67;;
27847;SDS011;15212;48.830;8.730;2023-06-14T05:00:06;7.92;;;4.30;;
27847;SDS011;15212;48.830;8.730;2023-06-14T05:02:37;8.18;;;4.83;;
27847;SDS011;15212;48.830;8.730;2023-06-14T05:05:06;10.50;;;4.65;;
27847;SDS011;15212;48.830;8.730;2023-06-14T05:07:35;11.38;;;4.72;;
27847;SDS011;15212;48.830;8.730;2023-06-14T05:10:03;7.25;;;4.42;;
27847;SDS011;15212;48.830;8.730;2023-06-14T05:12:32;10.93;;;4.28;;
27847;SDS011;15212;48.830;8.730;2023-06-14T05:15:01;5.75;;;4.00;;
27847;SDS011;15212;48.830;8.730;2023-06-14T05:17:30;9.33;;;4.50;;
27847;SDS011;15212;48.830;8.730;2023-06-14T05:19:58;10.72;;;4.55;;
27847;SDS011;15212;48.830;8.730;2023-06-14T05:22:27;9.33;;;4.20;;
27847;SDS011;15212;48.830;8.730;2023-06-14T05:24:55;6.37;;;4.03;;
27847;SDS011;15212;48.830;8.730;2023-06-14T05:27:24;5.53;;;3.77;;
27847;SDS011;15212;48.830;8.730;2023-06-14T05:29:52;7.12;;;4.53;;
27847;SDS011;15212;48.830;8.730;2023-06-14T05:32:22;6.75;;;3.90;;
27847;SDS011;15212;48.830;8.730;2023-06-14T05:34:51;8.28;;;4.17;;
27847;SDS011;15212;48.830;8.730;2023-06-14T05:37:19;9.33;;;4.22;;
27847;SDS011;15212;48.830;8.730;2023-06-14T05:39:47;7.45;;;4.80;;
27847;SDS011;15212;48.830;8.730;2023-06-14T05:42:16;8.63;;;4.45;;
27847;SDS011;15212;48.830;8.730;2023-06-14T05:44:44;11.05;;;4.87;;
27847;SDS011;15212;48.830;8.730;2023-06-14T05:47:12;9.45;;;4.35;;
27847;SDS011;15212;48.830;8.730;2023-06-14T05:49:41;8.00;;;4.00;;
27847;SDS011;15212;48.830;8.730;2023-06-14T05:52:09;7.90;;;4.00;;
27847;SDS011;15212;48.830;8.730;2023-06-14T05:54:38;5.92;;;4.17;;
27847;SDS011;15212;48.830;8.730;2023-06-14T05:57:07;7.70;;;4.20;;
27847;SDS011;15212;48.830;8.730;2023-06-14T05:59:36;10.98;;;4.45;;
27847;SDS011;15212;48.830;8.730;2023-06-14T06:02:05;6.25;;;3.90;;
27847;SDS011;15212;48.830;8.730;2023-06-14T06:04:33;7.45;;;4.17;;
27847;SDS011;15212;48.830;8.730;2023-06-14T06:07:01;8.65;;;3.75;;
27847;SDS011;15212;48.830;8.730;2023-06-14T06:09:31;7.70;;;4.37;;
27847;SDS011;15212;48.830;8.730;2023-06-14T06:11:59;8.88;;;3.92;;
27847;SDS011;15212;48.830;8.730;2023-06-14T06:14:28;5.47;;;3.75;;
27847;SDS011;15212;48.830;8.730;2023-06-14T06:16:56;6.12;;;3.65;;
27847;SDS011;15212;48.830;8.730;2023-06-14T06:19:25;5.58;;;4.05;;
27847;SDS011;15212;48.830;8.730;2023-06-14T06:21:53;5.45;;;3.62;;
27847;SDS011;15212;48.830;8.730;2023-06-14T06:24:21;6.65;;;3.52;;
27847;SDS011;15212;48.830;8.730;2023-06-14T06:26:50;5.55;;;3.60;;
27847;SDS011;15212;48.830;8.730;2023-06-14T06:29:19;5.97;;;3.75;;
27847;SDS011;15212;48.830;8.730;2023-06-14T06:31:47;5.08;;;3.33;;
27847;SDS011;15212;48.830;8.730;2023-06-14T06:34:16;8.20;;;3.87;;
27847;SDS011;15212;48.830;8.730;2023-06-14T06:36:44;6.35;;;3.47;;
27847;SDS011;15212;48.830;8.730;2023-06-14T06:39:12;5.67;;;3.35;;
27847;SDS011;15212;48.830;8.730;2023-06-14T06:41:41;8.18;;;3.40;;
27847;SDS011;15212;48.830;8.730;2023-06-14T06:44:09;7.65;;;3.70;;
27847;SDS011;15212;48.830;8.730;2023-06-14T06:46:38;4.65;;;3.25;;
27847;SDS011;15212;48.830;8.730;2023-06-14T06:49:08;4.45;;;3.22;;
27847;SDS011;15212;48.830;8.730;2023-06-14T06:51:41;3.85;;;2.92;;
27847;SDS011;15212;48.830;8.730;2023-06-14T06:54:11;5.92;;;3.55;;
27847;SDS011;15212;48.830;8.730;2023-06-14T06:56:40;4.92;;;3.35;;
27847;SDS011;15212;48.830;8.730;2023-06-14T06:59:08;5.60;;;3.33;;
27847;SDS011;15212;48.830;8.730;2023-06-14T07:01:38;8.53;;;3.37;;
27847;SDS011;15212;48.830;8.730;2023-06-14T07:04:07;6.83;;;3.08;;
27847;SDS011;15212;48.830;8.730;2023-06-14T07:06:35;5.12;;;3.00;;
27847;SDS011;15212;48.830;8.730;2023-06-14T07:09:03;5.72;;;3.42;;
27847;SDS011;15212;48.830;8.730;2023-06-14T07:11:34;6.40;;;3.47;;
27847;SDS011;15212;48.830;8.730;2023-06-14T07:14:02;5.35;;;3.17;;
27847;SDS011;15212;48.830;8.730;2023-06-14T07:16:30;4.33;;;3.20;;
27847;SDS011;15212;48.830;8.730;2023-06-14T07:18:59;5.62;;;3.47;;
27847;SDS011;15212;48.830;8.730;2023-06-14T07:21:29;7.80;;;3.50;;
27847;SDS011;15212;48.830;8.730;2023-06-14T07:23:58;8.08;;;3.50;;
27847;SDS011;15212;48.830;8.730;2023-06-14T07:26:26;4.65;;;3.20;;
27847;SDS011;15212;48.830;8.730;2023-06-14T07:28:54;5.70;;;3.40;;
27847;SDS011;15212;48.830;8.730;2023-06-14T07:31:23;4.33;;;3.40;;
27847;SDS011;15212;48.830;8.730;2023-06-14T07:33:52;5.47;;;3.60;;
27847;SDS011;15212;48.830;8.730;2023-06-14T07:36:20;5.20;;;3.60;;
27847;SDS011;15212;48.830;8.730;2023-06-14T07:38:50;3.62;;;3.15;;
27847;SDS011;15212;48.830;8.730;2023-06-14T07:41:18;4.97;;;3.00;;
27847;SDS011;15212;48.830;8.730;2023-06-14T07:43:46;4.90;;;3.42;;
27847;SDS011;15212;48.830;8.730;2023-06-14T07:46:15;4.58;;;3.25;;
27847;SDS011;15212;48.830;8.730;2023-06-14T07:48:43;7.42;;;3.20;;
27847;SDS011;15212;48.830;8.730;2023-06-14T07:51:12;6.10;;;3.60;;
27847;SDS011;15212;48.830;8.730;2023-06-14T07:53:40;6.15;;;3.85;;
27847;SDS011;15212;48.830;8.730;2023-06-14T07:56:08;5.03;;;3.70;;
27847;SDS011;15212;48.830;8.730;2023-06-14T07:58:37;7.90;;;4.03;;
27847;SDS011;15212;48.830;8.730;2023-06-14T08:01:05;6.78;;;3.77;;
27847;SDS011;15212;48.830;8.730;2023-06-14T08:03:34;7.00;;;4.00;;
27847;SDS011;15212;48.830;8.730;2023-06-14T08:06:02;7.50;;;4.05;;
27847;SDS011;15212;48.830;8.730;2023-06-14T08:08:31;6.70;;;3.80;;
27847;SDS011;15212;48.830;8.730;2023-06-14T08:11:00;6.78;;;3.80;;
27847;SDS011;15212;48.830;8.730;2023-06-14T08:13:28;6.42;;;4.22;;
27847;SDS011;15212;48.830;8.730;2023-06-14T08:15:57;7.20;;;4.03;;
27847;SDS011;15212;48.830;8.730;2023-06-14T08:18:27;5.70;;;4.25;;
27847;SDS011;15212;48.830;8.730;2023-06-14T08:20:56;5.95;;;4.37;;
27847;SDS011;15212;48.830;8.730;2023-06-14T08:23:24;6.22;;;4.30;;
27847;SDS011;15212;48.830;8.730;2023-06-14T08:25:53;7.20;;;4.08;;
27847;SDS011;15212;48.830;8.730;2023-06-14T08:28:21;7.05;;;4.17;;
27847;SDS011;15212;48.830;8.730;2023-06-14T08:30:51;8.55;;;4.35;;
27847;SDS011;15212;48.830;8.730;2023-06-14T08:33:20;6.78;;;4.30;;
27847;SDS011;15212;48.830;8.730;2023-06-14T08:35:48;8.83;;;4.50;;
27847;SDS011;15212;48.830;8.730;2023-06-14T08:38:17;8.58;;;4.35;;
27847;SDS011;15212;48.830;8.730;2023-06-14T08:40:47;10.18;;;4.30;;
27847;SDS011;15212;48.830;8.730;2023-06-14T08:43:17;8.83;;;4.67;;
27847;SDS011;15212;48.830;8.730;2023-06-14T08:45:46;8.35;;;4.25;;
27847;SDS011;15212;48.830;8.730;2023-06-14T08:48:20;10.20;;;4.30;;
27847;SDS011;15212;48.830;8.730;2023-06-14T08:50:51;6.25;;;4.22;;
27847;SDS011;15212;48.830;8.730;2023-06-14T08:53:30;9.60;;;4.40;;
27847;SDS011;15212;48.830;8.730;2023-06-14T08:56:00;9.03;;;4.20;;
27847;SDS011;15212;48.830;8.730;2023-06-14T08:58:30;8.28;;;4.80;;
27847;SDS011;15212;48.830;8.730;2023-06-14T09:01:02;10.68;;;4.62;;
27847;SDS011;15212;48.830;8.730;2023-06-14T09:03:33;6.58;;;4.33;;
27847;SDS011;15212;48.830;8.730;2023-06-14T09:06:03;8.10;;;4.65;;
27847;SDS011;15212;48.830;8.730;2023-06-14T09:08:34;11.38;;;4.62;;
27847;SDS011;15212;48.830;8.730;2023-06-14T09:11:02;8.70;;;4.40;;
27847;SDS011;15212;48.830;8.730;2023-06-14T09:13:30;8.85;;;4.53;;
27847;SDS011;15212;48.830;8.730;2023-06-14T09:15:59;6.65;;;4.12;;
27847;SDS011;15212;48.830;8.730;2023-06-14T09:18:37;10.90;;;4.30;;
27847;SDS011;15212;48.830;8.730;2023-06-14T09:21:09;6.25;;;4.22;;
27847;SDS011;15212;48.830;8.730;2023-06-14T09:23:39;6.45;;;4.22;;
27847;SDS011;15212;48.830;8.730;2023-06-14T09:26:15;6.15;;;3.83;;
27847;SDS011;15212;48.830;8.730;2023-06-14T09:28:46;5.85;;;3.85;;
27847;SDS011;15212;48.830;8.730;2023-06-14T09:31:16;7.30;;;4.33;;
27847;SDS011;15212;48.830;8.730;2023-06-14T09:33:46;6.75;;;3.85;;
27847;SDS011;15212;48.830;8.730;2023-06-14T09:36:17;9.88;;;4.55;;
27847;SDS011;15212;48.830;8.730;2023-06-14T09:38:55;7.50;;;3.75;;
27847;SDS011;15212;48.830;8.730;2023-06-14T09:41:35;7.67;;;4.47;;
27847;SDS011;15212;48.830;8.730;2023-06-14T09:44:06;10.70;;;4.22;;
27847;SDS011;15212;48.830;8.730;2023-06-14T09:46:36;9.68;;;4.22;;
27847;SDS011;15212;48.830;8.730;2023-06-14T09:49:05;7.83;;;3.80;;
27847;SDS011;15212;48.830;8.730;2023-06-14T09:51:34;10.48;;;4.08;;
27847;SDS011;15212;48.830;8.730;2023-06-14T09:54:12;8.28;;;4.87;;
27847;SDS011;15212;48.830;8.730;2023-06-14T09:56:44;7.28;;;4.30;;
27847;SDS011;15212;48.830;8.730;2023-06-14T09:59:16;6.85;;;4.22;;
27847;SDS011;15212;48.830;8.730;2023-06-14T10:01:52;6.35;;;3.90;;
27847;SDS011;15212;48.830;8.730;2023-06-14T10:04:25;7.33;;;4.20;;
27847;SDS011;15212;48.830;8.730;2023-06-14T10:06:57;8.85;;;4.08;;
27847;SDS011;15212;48.830;8.730;2023-06-14T10:09:28;8.35;;;3.95;;
27847;SDS011;15212;48.830;8.730;2023-06-14T10:11:57;6.97;;;4.10;;
27847;SDS011;15212;48.830;8.730;2023-06-14T10:14:26;5.67;;;3.87;;
27847;SDS011;15212;48.830;8.730;2023-06-14T10:19:42;7.28;;;3.98;;
27847;SDS011;15212;48.830;8.730;2023-06-14T10:25:07;7.25;;;4.20;;
27847;SDS011;15212;48.830;8.730;2023-06-14T10:27:38;12.40;;;3.87;;
27847;SDS011;15212;48.830;8.730;2023-06-14T10:30:11;5.45;;;3.83;;
27847;SDS011;15212;48.830;8.730;2023-06-14T10:35:33;5.45;;;3.70;;
27847;SDS011;15212;48.830;8.730;2023-06-14T10:38:11;7.60;;;3.77;;
27847;SDS011;15212;48.830;8.730;2023-06-14T10:40:40;6.08;;;3.50;;
27847;SDS011;15212;48.830;8.730;2023-06-14T10:43:21;6.97;;;3.83;;
27847;SDS011;15212;48.830;8.730;2023-06-14T10:46:33;7.08;;;3.87;;
27847;SDS011;15212;48.830;8.730;2023-06-14T10:48:47;7.10;;;4.00;;
27847;SDS011;15212;48.830;8.730;2023-06-14T10:51:21;5.60;;;4.10;;
27847;SDS011;15212;48.830;8.730;2023-06-14T10:53:47;5.70;;;3.98;;
27847;SDS011;15212;48.830;8.730;2023-06-14T10:56:23;9.60;;;4.10;;
27847;SDS011;15212;48.830;8.730;2023-06-14T10:58:59;8.30;;;4.47;;
27847;SDS011;15212;48.830;8.730;2023-06-14T11:01:37;8.28;;;4.05;;
27847;SDS011;15212;48.830;8.730;2023-06-14T11:04:10;7.95;;;4.25;;
27847;SDS011;15212;48.830;8.730;2023-06-14T11:06:45;8.35;;;4.30;;
27847;SDS011;15212;48.830;8.730;2023-06-14T11:12:06;9.13;;;4.00;;
27847;SDS011;15212;48.830;8.730;2023-06-14T11:14:38;12.68;;;3.90;;
27847;SDS011;15212;48.830;8.730;2023-06-14T11:17:06;5.58;;;3.80;;
27847;SDS011;15212;48.830;8.730;2023-06-14T11:19:35;5.12;;;3.85;;
27847;SDS011;15212;48.830;8.730;2023-06-14T11:22:03;6.30;;;3.50;;
27847;SDS011;15212;48.830;8.730;2023-06-14T11:24:32;8.10;;;3.87;;
27847;SDS011;15212;48.830;8.730;2023-06-14T11:27:01;9.23;;;4.12;;
27847;SDS011;15212;48.830;8.730;2023-06-14T11:29:29;8.38;;;3.75;;
27847;SDS011;15212;48.830;8.730;2023-06-14T11:31:58;7.47;;;3.67;;
27847;SDS011;15212;48.830;8.730;2023-06-14T11:34:26;12.53;;;3.52;;
27847;SDS011;15212;48.830;8.730;2023-06-14T11:36:54;6.65;;;3.77;;
27847;SDS011;15212;48.830;8.730;2023-06-14T11:39:26;10.03;;;3.80;;
27847;SDS011;15212;48.830;8.730;2023-06-14T11:41:54;8.65;;;3.70;;
27847;SDS011;15212;48.830;8.730;2023-06-14T11:44:24;5.03;;;3.67;;
27847;SDS011;15212;48.830;8.730;2023-06-14T11:46:53;5.72;;;3.90;;
27847;SDS011;15212;48.830;8.730;2023-06-14T11:49:23;6.12;;;3.60;;
27847;SDS011;15212;48.830;8.730;2023-06-14T11:51:53;8.23;;;3.35;;
27847;SDS011;15212;48.830;8.730;2023-06-14T11:54:21;8.13;;;3.62;;
27847;SDS011;15212;48.830;8.730;2023-06-14T11:56:50;6.17;;;3.75;;
27847;SDS011;15212;48.830;8.730;2023-06-14T11:59:18;8.68;;;4.00;;
27847;SDS011;15212;48.830;8.730;2023-06-14T12:01:48;7.22;;;3.75;;
27847;SDS011;15212;48.830;8.730;2023-06-14T12:04:23;7.15;;;3.77;;
27847;SDS011;15212;48.830;8.730;2023-06-14T12:06:54;9.50;;;3.83;;
27847;SDS011;15212;48.830;8.730;2023-06-14T12:09:23;6.90;;;3.90;;
27847;SDS011;15212;48.830;8.730;2023-06-14T12:11:59;5.35;;;3.67;;
27847;SDS011;15212;48.830;8.730;2023-06-14T12:14:35;7.00;;;3.42;;
27847;SDS011;15212;48.830;8.730;2023-06-14T12:17:05;7.22;;;3.72;;
27847;SDS011;15212;48.830;8.730;2023-06-14T12:19:46;7.58;;;3.85;;
27847;SDS011;15212;48.830;8.730;2023-06-14T12:22:12;4.87;;;3.10;;
27847;SDS011;15212;48.830;8.730;2023-06-14T12:24:44;8.33;;;3.80;;
27847;SDS011;15212;48.830;8.730;2023-06-14T12:27:13;8.28;;;3.40;;
27847;SDS011;15212;48.830;8.730;2023-06-14T12:29:44;8.00;;;3.80;;
27847;SDS011;15212;48.830;8.730;2023-06-14T12:32:12;6.40;;;3.37;;
27847;SDS011;15212;48.830;8.730;2023-06-14T12:34:41;7.90;;;3.87;;
27847;SDS011;15212;48.830;8.730;2023-06-14T12:37:09;7.22;;;3.42;;
27847;SDS011;15212;48.830;8.730;2023-06-14T12:39:38;6.25;;;3.27;;
27847;SDS011;15212;48.830;8.730;2023-06-14T12:42:06;5.85;;;3.70;;
27847;SDS011;15212;48.830;8.730;2023-06-14T12:44:35;6.03;;;3.47;;
27847;SDS011;15212;48.830;8.730;2023-06-14T12:47:05;6.53;;;3.47;;
27847;SDS011;15212;48.830;8.730;2023-06-14T12:49:35;6.90;;;3.80;;
27847;SDS011;15212;48.830;8.730;2023-06-14T12:52:03;5.58;;;3.25;;
27847;SDS011;15212;48.830;8.730;2023-06-14T12:54:32;4.25;;;3.20;;
27847;SDS011;15212;48.830;8.730;2023-06-14T12:57:01;8.18;;;3.58;;
27847;SDS011;15212;48.830;8.730;2023-06-14T12:59:29;7.42;;;3.27;;
27847;SDS011;15212;48.830;8.730;2023-06-14T13:02:15;5.67;;;3.60;;
27847;SDS011;15212;48.830;8.730;2023-06-14T13:04:46;8.28;;;3.58;;
27847;SDS011;15212;48.830;8.730;2023-06-14T13:07:14;5.53;;;3.60;;
27847;SDS011;15212;48.830;8.730;2023-06-14T13:09:43;7.97;;;3.40;;
27847;SDS011;15212;48.830;8.730;2023-06-14T13:12:11;6.12;;;3.75;;
27847;SDS011;15212;48.830;8.730;2023-06-14T13:14:40;7.60;;;3.45;;
27847;SDS011;15212;48.830;8.730;2023-06-14T13:17:09;5.50;;;3.17;;
27847;SDS011;15212;48.830;8.730;2023-06-14T13:19:37;5.08;;;3.40;;
27847;SDS011;15212;48.830;8.730;2023-06-14T13:22:06;13.38;;;3.55;;
27847;SDS011;15212;48.830;8.730;2023-06-14T13:24:35;6.17;;;3.30;;
27847;SDS011;15212;48.830;8.730;2023-06-14T13:27:04;6.30;;;3.37;;
27847;SDS011;15212;48.830;8.730;2023-06-14T13:29:32;6.28;;;3.55;;
27847;SDS011;15212;48.830;8.730;2023-06-14T13:32:02;6.08;;;3.20;;
27847;SDS011;15212;48.830;8.730;2023-06-14T13:34:31;5.08;;;3.35;;
27847;SDS011;15212;48.830;8.730;2023-06-14T13:36:59;7.60;;;3.50;;
27847;SDS011;15212;48.830;8.730;2023-06-14T13:39:28;6.00;;;3.35;;
27847;SDS011;15212;48.830;8.730;2023-06-14T13:41:56;4.37;;;3.02;;
27847;SDS011;15212;48.830;8.730;2023-06-14T13:44:24;5.75;;;3.25;;
27847;SDS011;15212;48.830;8.730;2023-06-14T13:46:53;7.05;;;3.67;;
27847;SDS011;15212;48.830;8.730;2023-06-14T13:49:21;8.28;;;3.27;;
27847;SDS011;15212;48.830;8.730;2023-06-14T13:51:50;4.37;;;3.58;;
27847;SDS011;15212;48.830;8.730;2023-06-14T13:54:21;5.62;;;3.47;;
27847;SDS011;15212;48.830;8.730;2023-06-14T13:56:49;4.65;;;2.98;;
27847;SDS011;15212;48.830;8.730;2023-06-14T13:59:18;5.97;;;3.05;;
27847;SDS011;15212;48.830;8.730;2023-06-14T14:01:46;7.35;;;3.25;;
27847;SDS011;15212;48.830;8.730;2023-06-14T14:04:15;4.87;;;3.33;;
27847;SDS011;15212;48.830;8.730;2023-06-14T14:06:43;5.55;;;3.25;;
27847;SDS011;15212;48.830;8.730;2023-06-14T14:09:12;5.60;;;3.47;;
27847;SDS011;15212;48.830;8.730;2023-06-14T14:11:40;5.67;;;3.25;;
27847;SDS011;15212;48.830;8.730;2023-06-14T14:14:09;6.12;;;3.15;;
27847;SDS011;15212;48.830;8.730;2023-06-14T14:16:37;4.85;;;3.25;;
27847;SDS011;15212;48.830;8.730;2023-06-14T14:19:05;4.37;;;2.75;;
27847;SDS011;15212;48.830;8.730;2023-06-14T14:21:34;6.25;;;3.77;;
27847;SDS011;15212;48.830;8.730;2023-06-14T14:24:02;5.30;;;3.10;;
27847;SDS011;15212;48.830;8.730;2023-06-14T14:26:31;6.62;;;3.50;;
27847;SDS011;15212;48.830;8.730;2023-06-14T14:28:59;6.22;;;3.10;;
27847;SDS011;15212;48.830;8.730;2023-06-14T14:31:28;4.30;;;2.80;;
27847;SDS011;15212;48.830;8.730;2023-06-14T14:33:57;5.53;;;3.20;;
27847;SDS011;15212;48.830;8.730;2023-06-14T14:36:25;5.58;;;3.12;;
27847;SDS011;15212;48.830;8.730;2023-06-14T14:38:53;8.20;;;3.30;;
27847;SDS011;15212;48.830;8.730;2023-06-14T14:41:22;4.78;;;3.08;;
27847;SDS011;15212;48.830;8.730;2023-06-14T14:43:50;4.83;;;2.90;;
27847;SDS011;15212;48.830;8.730;2023-06-14T14:46:19;6.72;;;3.35;;
27847;SDS011;15212;48.830;8.730;2023-06-14T14:48:47;7.33;;;3.20;;
27847;SDS011;15212;48.830;8.730;2023-06-14T14:51:16;6.28;;;3.35;;
27847;SDS011;15212;48.830;8.730;2023-06-14T14:53:44;6.53;;;3.22;;
27847;SDS011;15212;48.830;8.730;2023-06-14T14:56:12;5.53;;;3.37;;
27847;SDS011;15212;48.830;8.730;2023-06-14T14:58:41;6.97;;;3.30;;
27847;SDS011;15212;48.830;8.730;2023-06-14T15:01:09;5.28;;;3.30;;
27847;SDS011;15212;48.830;8.730;2023-06-14T15:03:38;9.05;;;3.65;;
27847;SDS011;15212;48.830;8.730;2023-06-14T15:06:06;7.80;;;3.50;;
27847;SDS011;15212;48.830;8.730;2023-06-14T15:08:35;5.53;;;3.17;;
27847;SDS011;15212;48.830;8.730;2023-06-14T15:11:03;5.55;;;3.22;;